createdAt,value
2019-02-07T00:00:04.548Z,19.73
2019-02-07T00:00:49.961Z,21.77
2019-02-07T00:01:25.527Z,24.32
2019-02-07T00:01:58.695Z,21.80
2019-02-07T00:02:31.190Z,20.25
2019-02-07T00:03:04.239Z,18.07
2019-02-07T00:03:36.705Z,18.67
2019-02-07T00:04:09.522Z,23.12
2019-02-07T00:04:42.326Z,22.62
2019-02-07T00:05:15.631Z,20.60
2019-02-07T00:05:48.226Z,21.15
2019-02-07T00:06:21.014Z,18.70
2019-02-07T00:06:54.611Z,20.80
2019-02-07T00:07:27.616Z,22.85
2019-02-07T00:08:00.796Z,17.85
2019-02-07T00:08:33.277Z,19.67
2019-02-07T00:09:09.253Z,20.68
2019-02-07T00:09:41.713Z,20.17
2019-02-07T00:10:15.368Z,21.10
2019-02-07T00:10:48.215Z,20.27
2019-02-07T00:11:20.717Z,21.07
2019-02-07T00:11:53.202Z,17.75
2019-02-07T00:12:25.670Z,19.27
2019-02-07T00:12:58.787Z,21.75
2019-02-07T00:13:31.642Z,20.52
2019-02-07T00:14:04.127Z,19.45
2019-02-07T00:14:39.807Z,21.25
2019-02-07T00:15:11.809Z,17.82
2019-02-07T00:15:44.621Z,22.32
2019-02-07T00:16:17.111Z,19.23
2019-02-07T00:16:49.595Z,19.87
2019-02-07T00:17:22.094Z,17.80
2019-02-07T00:17:55.361Z,25.62
2019-02-07T00:18:27.886Z,22.02
2019-02-07T00:19:01.057Z,18.27
2019-02-07T00:19:33.836Z,18.52
2019-02-07T00:20:07.338Z,18.48
2019-02-07T00:20:40.908Z,17.20
2019-02-07T00:21:13.386Z,16.67
2019-02-07T00:21:45.870Z,19.12
2019-02-07T00:22:18.351Z,22.10
2019-02-07T00:22:51.187Z,19.48
2019-02-07T00:23:23.661Z,24.55
2019-02-07T00:23:56.215Z,20.70
2019-02-07T00:24:28.677Z,19.42
2019-02-07T00:25:01.158Z,18.25
2019-02-07T00:25:33.704Z,22.67
2019-02-07T00:26:06.159Z,21.90
2019-02-07T00:26:38.915Z,21.80
2019-02-07T00:27:11.386Z,20.43
2019-02-07T00:27:43.894Z,22.95
2019-02-07T00:28:16.586Z,19.67
2019-02-07T00:28:49.772Z,19.75
2019-02-07T00:29:22.872Z,17.98
2019-02-07T00:29:55.358Z,18.85
2019-02-07T00:30:27.951Z,19.92
2019-02-07T00:31:00.433Z,18.37
2019-02-07T00:31:32.963Z,18.60
2019-02-07T00:32:05.911Z,20.40
2019-02-07T00:32:38.423Z,26.40
2019-02-07T00:33:11.288Z,16.10
2019-02-07T00:33:43.745Z,20.48
2019-02-07T00:34:16.218Z,19.75
2019-02-07T00:34:48.723Z,18.82
2019-02-07T00:35:21.747Z,21.55
2019-02-07T00:35:54.252Z,19.00
2019-02-07T00:36:26.732Z,19.10
2019-02-07T00:36:59.209Z,17.27
2019-02-07T00:37:32.135Z,15.93
2019-02-07T00:38:04.621Z,19.32
2019-02-07T00:38:37.440Z,21.45
2019-02-07T00:39:09.930Z,19.23
2019-02-07T00:39:43.185Z,20.60
2019-02-07T00:40:16.219Z,18.45
2019-02-07T00:40:48.999Z,21.70
2019-02-07T00:41:21.489Z,20.85
2019-02-07T00:41:53.958Z,18.20
2019-02-07T00:42:26.875Z,18.02
2019-02-07T00:42:59.308Z,19.07
2019-02-07T00:43:31.774Z,18.45
2019-02-07T00:44:05.149Z,18.10
2019-02-07T00:44:37.631Z,18.55
2019-02-07T00:45:12.114Z,18.23
2019-02-07T00:45:45.005Z,19.73
2019-02-07T00:46:17.508Z,18.20
2019-02-07T00:46:49.969Z,17.92
2019-02-07T00:47:23.390Z,20.27
2019-02-07T00:47:55.884Z,20.92
2019-02-07T00:48:28.691Z,22.52
2019-02-07T00:49:01.161Z,18.12
2019-02-07T00:49:34.032Z,19.10
2019-02-07T00:50:07.123Z,18.48
2019-02-07T00:50:39.609Z,17.48
2019-02-07T00:51:12.707Z,23.40
2019-02-07T00:51:45.214Z,19.95
2019-02-07T00:52:18.138Z,20.95
2019-02-07T00:52:50.603Z,19.27
2019-02-07T00:53:23.095Z,21.68
2019-02-07T00:53:55.970Z,19.92
2019-02-07T00:54:28.475Z,21.87
2019-02-07T00:55:00.915Z,21.37
2019-02-07T00:55:33.394Z,19.50
2019-02-07T00:56:05.873Z,22.25
2019-02-07T00:56:39.789Z,21.23
2019-02-07T00:57:12.978Z,23.70
2019-02-07T00:57:45.829Z,21.27
2019-02-07T00:58:18.314Z,20.50
2019-02-07T00:58:51.191Z,24.00
2019-02-07T00:59:23.666Z,19.65
2019-02-07T00:59:56.168Z,19.92
2019-02-07T01:00:28.663Z,18.50
2019-02-07T01:01:01.147Z,16.35
2019-02-07T01:01:33.634Z,17.57
2019-02-07T01:02:06.750Z,19.20
2019-02-07T01:02:39.923Z,19.42
2019-02-07T01:03:12.402Z,26.17
2019-02-07T01:03:45.195Z,14.15
2019-02-07T01:04:17.678Z,19.40
2019-02-07T01:04:50.448Z,15.03
2019-02-07T01:05:23.049Z,20.92
2019-02-07T01:05:55.549Z,19.57
2019-02-07T01:06:28.014Z,20.52
2019-02-07T01:07:00.832Z,15.25
2019-02-07T01:07:33.346Z,17.73
2019-02-07T01:08:06.491Z,17.85
2019-02-07T01:08:38.975Z,14.85
2019-02-07T01:09:12.126Z,21.20
2019-02-07T01:09:44.609Z,21.48
2019-02-07T01:10:20.144Z,20.17
2019-02-07T01:10:53.510Z,22.05
2019-02-07T01:11:26.322Z,18.48
2019-02-07T01:11:58.800Z,18.37
2019-02-07T01:12:31.622Z,15.78
2019-02-07T01:13:04.792Z,18.40
2019-02-07T01:13:37.261Z,18.80
2019-02-07T01:14:09.861Z,18.37
2019-02-07T01:14:42.787Z,18.25
2019-02-07T01:15:15.679Z,21.15
2019-02-07T01:15:48.529Z,23.15
2019-02-07T01:16:21.802Z,19.40
2019-02-07T01:16:54.755Z,20.10
2019-02-07T01:17:27.684Z,21.23
2019-02-07T01:18:00.179Z,17.60
2019-02-07T01:18:33.087Z,19.25
2019-02-07T01:19:05.568Z,19.75
2019-02-07T01:19:38.587Z,15.95
2019-02-07T01:20:13.022Z,17.07
2019-02-07T01:20:45.862Z,15.38
2019-02-07T01:21:18.361Z,20.62
2019-02-07T01:21:50.926Z,22.87
2019-02-07T01:22:23.495Z,17.82
2019-02-07T01:22:56.757Z,19.80
2019-02-07T01:23:29.636Z,18.05
2019-02-07T01:24:02.922Z,20.68
2019-02-07T01:24:35.393Z,16.42
2019-02-07T01:25:10.008Z,17.85
2019-02-07T01:25:42.499Z,18.23
2019-02-07T01:26:14.988Z,18.50
2019-02-07T01:26:47.815Z,17.95
2019-02-07T01:27:20.667Z,18.75
2019-02-07T01:27:53.777Z,18.05
2019-02-07T01:28:26.256Z,18.17
2019-02-07T01:28:58.736Z,22.37
2019-02-07T01:29:31.642Z,18.95
2019-02-07T01:30:05.842Z,23.32
2019-02-07T01:30:38.318Z,20.92
2019-02-07T01:31:10.795Z,21.10
2019-02-07T01:31:43.298Z,21.97
2019-02-07T01:32:15.773Z,22.85
2019-02-07T01:32:48.730Z,22.35
2019-02-07T01:33:21.219Z,24.30
2019-02-07T01:33:53.707Z,21.12
2019-02-07T01:34:26.179Z,20.70
2019-02-07T01:34:59.000Z,24.98
2019-02-07T01:35:31.478Z,22.10
2019-02-07T01:36:03.980Z,20.23
2019-02-07T01:36:36.857Z,19.40
2019-02-07T01:37:09.435Z,19.82
2019-02-07T01:37:41.923Z,19.62
2019-02-07T01:38:15.174Z,20.95
2019-02-07T01:38:47.942Z,18.65
2019-02-07T01:39:20.714Z,16.15
2019-02-07T01:39:53.200Z,20.82
2019-02-07T01:40:26.059Z,19.77
2019-02-07T01:40:58.555Z,18.35
2019-02-07T01:41:31.029Z,19.80
2019-02-07T01:42:03.628Z,17.62
2019-02-07T01:42:36.198Z,16.77
2019-02-07T01:43:09.899Z,18.05
2019-02-07T01:43:42.768Z,19.40
2019-02-07T01:44:15.698Z,18.77
2019-02-07T01:44:48.174Z,17.40
2019-02-07T01:45:21.067Z,17.70
2019-02-07T01:45:54.100Z,18.27
2019-02-07T01:46:26.586Z,17.90
2019-02-07T01:46:59.066Z,16.60
2019-02-07T01:47:31.875Z,19.40
2019-02-07T01:48:04.702Z,17.52
2019-02-07T01:48:37.784Z,16.65
2019-02-07T01:49:10.402Z,17.35
2019-02-07T01:49:43.528Z,15.30
2019-02-07T01:50:17.654Z,18.40
2019-02-07T01:50:50.139Z,18.65
2019-02-07T01:51:22.756Z,17.32
2019-02-07T01:51:55.246Z,21.60
2019-02-07T01:52:28.218Z,18.05
2019-02-07T01:53:00.707Z,19.50
2019-02-07T01:53:33.178Z,16.67
2019-02-07T01:54:05.974Z,16.60
2019-02-07T01:54:38.767Z,19.30
2019-02-07T01:55:11.545Z,19.75
2019-02-07T01:55:44.030Z,16.15
2019-02-07T01:56:16.521Z,16.50
2019-02-07T01:56:49.505Z,20.50
2019-02-07T01:57:21.981Z,16.67
2019-02-07T01:57:54.571Z,16.70
2019-02-07T01:58:27.063Z,15.48
2019-02-07T01:59:00.226Z,19.00
2019-02-07T01:59:32.712Z,15.40
2019-02-07T02:00:09.559Z,17.65
2019-02-07T02:00:42.044Z,17.73
2019-02-07T02:01:15.313Z,15.90
2019-02-07T02:01:48.116Z,16.60
2019-02-07T02:02:22.819Z,15.32
2019-02-07T02:02:55.444Z,17.67
2019-02-07T02:03:27.941Z,16.80
2019-02-07T02:04:00.834Z,18.67
2019-02-07T02:04:33.588Z,15.65
2019-02-07T02:05:07.072Z,17.52
2019-02-07T02:05:39.555Z,20.62
2019-02-07T02:06:12.400Z,17.07
2019-02-07T02:06:45.580Z,18.40
2019-02-07T02:07:18.447Z,19.27
2019-02-07T02:07:51.069Z,17.48
2019-02-07T02:08:23.825Z,19.23
2019-02-07T02:08:56.688Z,17.42
2019-02-07T02:09:29.509Z,19.73
2019-02-07T02:10:02.400Z,17.77
2019-02-07T02:10:34.886Z,19.92
2019-02-07T02:11:07.691Z,16.55
2019-02-07T02:11:40.769Z,20.00
2019-02-07T02:12:13.267Z,14.78
2019-02-07T02:12:45.950Z,16.23
2019-02-07T02:13:18.783Z,16.95
2019-02-07T02:13:51.864Z,20.75
2019-02-07T02:14:24.362Z,19.45
2019-02-07T02:14:56.844Z,17.40
2019-02-07T02:15:29.439Z,18.40
2019-02-07T02:16:02.471Z,17.67
2019-02-07T02:16:34.972Z,19.00
2019-02-07T02:17:07.754Z,22.20
2019-02-07T02:17:40.231Z,17.37
2019-02-07T02:18:12.724Z,19.07
2019-02-07T02:18:45.686Z,18.55
2019-02-07T02:19:18.530Z,16.55
2019-02-07T02:19:51.902Z,18.42
2019-02-07T02:20:24.823Z,19.17
2019-02-07T02:20:58.123Z,19.25
2019-02-07T02:21:30.956Z,21.00
2019-02-07T02:22:03.543Z,20.12
2019-02-07T02:22:36.018Z,17.60
2019-02-07T02:23:08.809Z,16.75
2019-02-07T02:23:41.399Z,18.87
2019-02-07T02:24:14.224Z,16.67
2019-02-07T02:24:46.730Z,19.75
2019-02-07T02:25:19.832Z,15.50
2019-02-07T02:25:52.313Z,18.23
2019-02-07T02:26:25.115Z,18.32
2019-02-07T02:26:57.885Z,19.65
2019-02-07T02:27:30.367Z,19.52
2019-02-07T02:28:02.850Z,17.52
2019-02-07T02:28:35.420Z,18.62
2019-02-07T02:29:07.911Z,22.65
2019-02-07T02:29:40.426Z,19.73
2019-02-07T02:30:15.930Z,24.85
2019-02-07T02:30:48.401Z,18.85
2019-02-07T02:31:20.870Z,19.15
2019-02-07T02:31:53.368Z,19.05
2019-02-07T02:32:25.852Z,18.82
2019-02-07T02:32:59.055Z,18.40
2019-02-07T02:33:31.820Z,19.70
2019-02-07T02:34:04.312Z,18.45
2019-02-07T02:34:37.107Z,19.98
2019-02-07T02:35:09.615Z,16.73
2019-02-07T02:35:42.897Z,18.37
2019-02-07T02:36:15.374Z,19.90
2019-02-07T02:36:48.556Z,22.90
2019-02-07T02:37:21.708Z,21.80
2019-02-07T02:37:54.574Z,20.15
2019-02-07T02:38:27.686Z,20.12
2019-02-07T02:39:00.175Z,16.87
2019-02-07T02:39:32.791Z,17.57
2019-02-07T02:40:05.725Z,18.95
2019-02-07T02:40:38.244Z,19.77
2019-02-07T02:41:10.724Z,19.60
2019-02-07T02:41:43.225Z,17.87
2019-02-07T02:42:16.073Z,21.40
2019-02-07T02:42:48.756Z,22.60
2019-02-07T02:43:21.546Z,22.17
2019-02-07T02:43:54.037Z,19.70
2019-02-07T02:44:26.532Z,19.25
2019-02-07T02:44:59.297Z,22.95
2019-02-07T02:45:37.734Z,19.25
2019-02-07T02:46:06.093Z,18.57
2019-02-07T02:46:38.583Z,20.40
2019-02-07T02:47:11.496Z,16.85
2019-02-07T02:47:43.985Z,16.40
2019-02-07T02:48:16.480Z,17.05
2019-02-07T02:48:49.335Z,18.70
2019-02-07T02:49:21.817Z,25.60
2019-02-07T02:49:54.315Z,18.42
2019-02-07T02:50:27.425Z,18.27
2019-02-07T02:51:00.397Z,19.55
2019-02-07T02:51:33.483Z,17.30
2019-02-07T02:52:05.972Z,26.40
2019-02-07T02:52:40.309Z,21.15
2019-02-07T02:53:13.056Z,19.75
2019-02-07T02:53:46.262Z,20.80
2019-02-07T02:54:37.372Z,18.32
2019-02-07T02:55:11.362Z,21.68
2019-02-07T02:55:44.112Z,22.27
2019-02-07T02:56:16.596Z,23.12
2019-02-07T02:56:49.107Z,20.02
2019-02-07T02:57:21.618Z,21.10
2019-02-07T02:57:54.811Z,20.45
2019-02-07T02:58:27.601Z,20.02
2019-02-07T02:59:00.350Z,18.77
2019-02-07T02:59:32.930Z,21.62
2019-02-07T03:00:13.196Z,18.42
2019-02-07T03:01:04.342Z,23.25
2019-02-07T03:01:56.808Z,22.37
2019-02-07T03:02:51.572Z,19.82
2019-02-07T03:03:29.848Z,19.48
2019-02-07T03:04:27.879Z,18.80
2019-02-07T03:05:20.747Z,19.92
2019-02-07T03:06:13.074Z,19.95
2019-02-07T03:07:08.332Z,21.23
2019-02-07T03:07:59.982Z,22.07
2019-02-07T03:09:07.338Z,19.75
2019-02-07T03:09:55.614Z,19.87
2019-02-07T03:10:51.330Z,21.73
2019-02-07T03:11:37.800Z,17.55
2019-02-07T03:12:39.005Z,17.45
2019-02-07T03:13:29.604Z,22.17
2019-02-07T03:14:21.869Z,21.30
2019-02-07T03:15:13.835Z,21.30
2019-02-07T03:16:08.942Z,23.77
2019-02-07T03:17:19.298Z,22.45
2019-02-07T03:18:13.901Z,18.05
2019-02-07T03:18:58.510Z,22.42
2019-02-07T03:19:59.328Z,19.00
2019-02-07T03:21:09.735Z,24.30
2019-02-07T03:21:53.007Z,26.25
2019-02-07T03:22:54.310Z,24.40
2019-02-07T03:23:46.318Z,20.00
2019-02-07T03:24:37.039Z,21.17
2019-02-07T03:25:29.276Z,24.45
2019-02-07T03:26:36.967Z,21.37
2019-02-07T03:27:23.645Z,23.67
2019-02-07T03:28:27.812Z,19.98
2019-02-07T03:29:22.574Z,24.25
2019-02-07T03:30:23.284Z,20.08
2019-02-07T03:31:15.958Z,20.90
2019-02-07T03:32:08.094Z,19.57
2019-02-07T03:32:54.102Z,25.85
2019-02-07T03:33:47.755Z,21.37
2019-02-07T03:34:33.460Z,25.57
2019-02-07T03:35:25.914Z,20.17
2019-02-07T03:36:17.900Z,22.87
2019-02-07T03:37:08.707Z,22.25
2019-02-07T03:38:06.846Z,22.73
2019-02-07T03:39:04.685Z,23.00
2019-02-07T03:39:59.826Z,23.10
2019-02-07T03:40:49.331Z,20.48
2019-02-07T03:41:47.107Z,23.52
2019-02-07T03:42:40.345Z,19.57
2019-02-07T03:43:28.047Z,18.80
2019-02-07T03:44:12.110Z,22.85
2019-02-07T03:45:00.333Z,25.37
2019-02-07T03:46:02.251Z,23.98
2019-02-07T03:46:35.465Z,20.65
2019-02-07T03:47:30.485Z,28.40
2019-02-07T03:48:22.860Z,21.55
2019-02-07T03:49:14.838Z,23.32
2019-02-07T03:50:19.142Z,20.48
2019-02-07T03:51:10.151Z,22.85
2019-02-07T03:51:56.541Z,23.20
2019-02-07T03:52:51.814Z,25.37
2019-02-07T03:53:45.431Z,23.10
2019-02-07T03:54:49.649Z,23.67
2019-02-07T03:55:40.542Z,24.47
2019-02-07T03:56:32.557Z,23.42
2019-02-07T03:57:23.248Z,18.50
2019-02-07T03:58:15.214Z,22.75
2019-02-07T03:59:03.192Z,26.90
2019-02-07T03:59:55.290Z,18.62
2019-02-07T04:00:46.011Z,22.80
2019-02-07T04:01:40.382Z,25.80
2019-02-07T04:02:35.247Z,21.42
2019-02-07T04:03:19.665Z,24.37
2019-02-07T04:04:02.864Z,25.05
2019-02-07T04:04:54.200Z,27.27
2019-02-07T04:05:46.174Z,24.50
2019-02-07T04:06:38.147Z,24.07
2019-02-07T04:07:25.363Z,22.93
2019-02-07T04:08:26.359Z,27.07
2019-02-07T04:09:18.820Z,21.60
2019-02-07T04:10:11.483Z,23.35
2019-02-07T04:11:06.304Z,27.98
2019-02-07T04:11:56.927Z,23.20
2019-02-07T04:12:44.958Z,24.07
2019-02-07T04:13:27.722Z,25.40
2019-02-07T04:14:12.995Z,24.95
2019-02-07T04:15:04.098Z,25.50
2019-02-07T04:15:55.135Z,25.70
2019-02-07T04:16:43.310Z,23.92
2019-02-07T04:17:38.317Z,24.85
2019-02-07T04:18:29.165Z,26.57
2019-02-07T04:19:19.687Z,22.65
2019-02-07T04:20:14.434Z,23.98
2019-02-07T04:21:14.386Z,22.58
2019-02-07T04:22:09.174Z,26.17
2019-02-07T04:23:02.925Z,21.82
2019-02-07T04:24:01.548Z,24.05
2019-02-07T04:24:52.381Z,25.32
2019-02-07T04:25:43.162Z,25.08
2019-02-07T04:26:35.919Z,24.87
2019-02-07T04:27:18.303Z,31.73
2019-02-07T04:28:10.653Z,27.62
2019-02-07T04:28:58.963Z,24.40
2019-02-07T04:29:42.604Z,27.10
2019-02-07T04:30:40.612Z,24.95
2019-02-07T04:31:42.084Z,31.00
2019-02-07T04:32:29.146Z,23.35
2019-02-07T04:33:27.138Z,28.23
2019-02-07T04:34:19.748Z,23.42
2019-02-07T04:35:00.874Z,24.10
2019-02-07T04:35:45.990Z,23.77
2019-02-07T04:36:37.962Z,25.10
2019-02-07T04:37:31.965Z,26.45
2019-02-07T04:38:26.926Z,24.07
2019-02-07T04:39:19.927Z,20.40
2019-02-07T04:40:20.848Z,22.58
2019-02-07T04:41:16.395Z,24.10
2019-02-07T04:42:07.300Z,22.87
2019-02-07T04:42:47.678Z,26.55
2019-02-07T04:43:55.301Z,25.75
2019-02-07T04:44:45.921Z,21.12
2019-02-07T04:45:46.555Z,21.30
2019-02-07T04:46:31.219Z,27.40
2019-02-07T04:47:38.249Z,22.75
2019-02-07T04:48:28.903Z,23.10
2019-02-07T04:49:16.087Z,26.77
2019-02-07T04:50:09.341Z,25.57
2019-02-07T04:51:07.680Z,26.17
2019-02-07T04:51:58.573Z,22.70
2019-02-07T04:52:49.413Z,27.40
2019-02-07T04:53:40.385Z,24.95
2019-02-07T04:54:32.345Z,25.90
2019-02-07T04:55:27.103Z,25.88
2019-02-07T04:56:17.733Z,29.02
2019-02-07T04:57:08.973Z,22.40
2019-02-07T04:57:58.436Z,29.23
2019-02-07T04:58:41.171Z,28.50
2019-02-07T04:59:32.034Z,24.07
2019-02-07T05:00:36.782Z,28.15
2019-02-07T05:01:31.641Z,27.60
2019-02-07T05:02:26.203Z,29.90
2019-02-07T05:03:18.192Z,23.27
2019-02-07T05:04:10.450Z,24.32
2019-02-07T05:05:02.751Z,29.50
2019-02-07T05:05:52.451Z,24.80
2019-02-07T05:06:43.230Z,24.02
2019-02-07T05:07:34.077Z,24.25
2019-02-07T05:08:25.338Z,30.20
2019-02-07T05:09:08.347Z,29.75
2019-02-07T05:10:00.490Z,23.18
2019-02-07T05:10:51.370Z,24.63
2019-02-07T05:11:49.226Z,19.37
2019-02-07T05:12:34.873Z,26.02
2019-02-07T05:13:39.610Z,25.90
2019-02-07T05:14:34.795Z,26.60
2019-02-07T05:15:19.540Z,23.18
2019-02-07T05:16:14.594Z,26.02
2019-02-07T05:17:15.563Z,24.00
2019-02-07T05:18:06.326Z,26.35
2019-02-07T05:18:58.088Z,24.98
2019-02-07T05:20:02.204Z,26.42
2019-02-07T05:20:52.987Z,27.50
2019-02-07T05:21:47.963Z,25.23
2019-02-07T05:22:37.142Z,23.42
2019-02-07T05:23:29.120Z,24.60
2019-02-07T05:24:15.998Z,24.45
2019-02-07T05:25:10.725Z,28.05
2019-02-07T05:26:01.333Z,26.48
2019-02-07T05:26:53.308Z,24.18
2019-02-07T05:27:55.043Z,29.77
2019-02-07T05:28:46.062Z,28.98
2019-02-07T05:29:38.039Z,31.62
2019-02-07T05:30:30.796Z,32.05
2019-02-07T05:31:26.100Z,29.23
2019-02-07T05:32:30.609Z,29.55
2019-02-07T05:33:22.895Z,29.10
2019-02-07T05:34:17.546Z,25.68
2019-02-07T05:35:09.828Z,25.50
2019-02-07T05:36:00.415Z,27.95
2019-02-07T05:36:49.793Z,26.60
2019-02-07T05:37:44.669Z,25.25
2019-02-07T05:38:39.875Z,28.38
2019-02-07T05:39:24.008Z,30.35
2019-02-07T05:40:17.402Z,26.68
2019-02-07T05:41:12.394Z,28.32
2019-02-07T05:41:55.117Z,28.90
2019-02-07T05:42:47.472Z,29.85
2019-02-07T05:43:38.171Z,25.25
2019-02-07T05:44:21.799Z,31.10
2019-02-07T05:45:20.034Z,27.80
2019-02-07T05:46:03.522Z,25.82
2019-02-07T05:47:01.538Z,25.70
2019-02-07T05:47:42.584Z,29.70
2019-02-07T05:48:35.009Z,26.90
2019-02-07T05:49:28.479Z,27.87
2019-02-07T05:50:23.196Z,34.05
2019-02-07T05:51:24.541Z,33.50
2019-02-07T05:52:14.842Z,30.75
2019-02-07T05:53:13.236Z,28.80
2019-02-07T05:54:02.959Z,33.50
2019-02-07T05:54:57.969Z,33.85
2019-02-07T05:55:53.814Z,34.13
2019-02-07T05:56:45.804Z,32.08
2019-02-07T05:57:36.005Z,37.93
2019-02-07T05:58:26.579Z,38.33
2019-02-07T05:59:10.075Z,32.30
2019-02-07T06:00:20.354Z,38.45
2019-02-07T06:01:06.737Z,32.80
2019-02-07T06:02:07.620Z,30.85
2019-02-07T06:02:58.454Z,28.38
2019-02-07T06:03:40.941Z,27.05
2019-02-07T06:04:25.992Z,32.05
2019-02-07T06:05:16.668Z,32.15
2019-02-07T06:06:15.206Z,32.73
2019-02-07T06:07:10.104Z,45.30
2019-02-07T06:08:04.769Z,35.05
2019-02-07T06:08:55.529Z,34.53
2019-02-07T06:09:56.344Z,32.75
2019-02-07T06:10:47.647Z,30.88
2019-02-07T06:11:35.569Z,33.42
2019-02-07T06:12:26.203Z,33.58
2019-02-07T06:13:18.179Z,33.83
2019-02-07T06:14:05.067Z,30.48
2019-02-07T06:14:55.534Z,39.60
2019-02-07T06:15:39.768Z,36.30
2019-02-07T06:16:32.055Z,37.85
2019-02-07T06:17:24.343Z,31.48
2019-02-07T06:18:09.592Z,31.35
2019-02-07T06:19:04.587Z,36.15
2019-02-07T06:20:00.340Z,31.42
2019-02-07T06:20:42.883Z,34.85
2019-02-07T06:21:53.559Z,32.63
2019-02-07T06:22:48.415Z,32.95
2019-02-07T06:23:55.438Z,33.35
2019-02-07T06:24:53.545Z,30.68
2019-02-07T06:25:52.037Z,30.00
2019-02-07T06:26:40.677Z,31.75
2019-02-07T06:27:35.994Z,31.55
2019-02-07T06:28:40.074Z,25.68
2019-02-07T06:29:32.052Z,34.85
2019-02-07T06:30:25.607Z,30.15
2019-02-07T06:31:05.052Z,27.62
2019-02-07T06:32:08.981Z,32.30
2019-02-07T06:32:59.852Z,32.33
2019-02-07T06:33:44.542Z,33.13
2019-02-07T06:34:35.346Z,29.98
2019-02-07T06:35:27.601Z,33.42
2019-02-07T06:36:31.718Z,34.08
2019-02-07T06:37:27.228Z,30.27
2019-02-07T06:38:22.755Z,29.80
2019-02-07T06:39:04.741Z,29.65
2019-02-07T06:40:05.678Z,34.20
2019-02-07T06:41:00.559Z,36.28
2019-02-07T06:41:51.418Z,31.55
2019-02-07T06:42:42.180Z,33.08
2019-02-07T06:43:22.579Z,28.60
2019-02-07T06:44:14.589Z,32.63
2019-02-07T06:45:06.566Z,30.82
2019-02-07T06:46:01.535Z,30.85
2019-02-07T06:46:53.328Z,31.25
2019-02-07T06:47:45.323Z,28.95
2019-02-07T06:48:36.559Z,29.75
2019-02-07T06:49:35.004Z,29.18
2019-02-07T06:50:27.613Z,36.42
2019-02-07T06:51:25.563Z,28.42
2019-02-07T06:52:21.598Z,33.20
2019-02-07T06:53:23.149Z,35.28
2019-02-07T06:54:11.788Z,24.37
2019-02-07T06:55:02.411Z,28.32
2019-02-07T06:55:54.431Z,30.70
2019-02-07T06:56:46.440Z,29.02
2019-02-07T06:57:50.415Z,31.12
2019-02-07T06:58:48.496Z,31.48
2019-02-07T06:59:58.940Z,33.70
2019-02-07T07:00:56.899Z,28.83
2019-02-07T07:01:54.979Z,28.30
2019-02-07T07:02:35.262Z,37.03
2019-02-07T07:03:27.250Z,27.32
2019-02-07T07:04:31.326Z,34.40
2019-02-07T07:05:27.292Z,33.67
2019-02-07T07:06:34.640Z,33.28
2019-02-07T07:07:45.313Z,33.13
2019-02-07T07:08:40.430Z,27.93
2019-02-07T07:09:31.155Z,30.27
2019-02-07T07:10:37.562Z,35.60
2019-02-07T07:11:48.056Z,28.87
2019-02-07T07:12:58.676Z,27.87
2019-02-07T07:13:54.117Z,31.75
2019-02-07T07:14:52.378Z,31.30
2019-02-07T07:15:32.170Z,34.65
2019-02-07T07:16:14.942Z,30.23
2019-02-07T07:17:09.881Z,28.12
2019-02-07T07:18:13.911Z,26.07
2019-02-07T07:19:04.479Z,25.88
2019-02-07T07:20:02.614Z,30.57
2019-02-07T07:20:54.591Z,32.98
2019-02-07T07:21:45.501Z,34.45
2019-02-07T07:22:40.846Z,34.85
2019-02-07T07:23:31.954Z,26.82
2019-02-07T07:24:29.697Z,36.77
2019-02-07T07:25:26.706Z,31.90
2019-02-07T07:26:23.558Z,33.48
2019-02-07T07:27:27.616Z,35.50
2019-02-07T07:28:18.751Z,38.33
2019-02-07T07:29:19.601Z,34.90
2019-02-07T07:30:10.196Z,33.78
2019-02-07T07:30:56.655Z,32.15
2019-02-07T07:31:47.211Z,28.67
2019-02-07T07:32:39.361Z,29.27
2019-02-07T07:33:26.091Z,31.05
2019-02-07T07:34:13.718Z,31.65
2019-02-07T07:35:04.914Z,31.02
2019-02-07T07:36:02.491Z,34.55
2019-02-07T07:37:03.403Z,27.85
2019-02-07T07:38:07.786Z,36.25
2019-02-07T07:38:58.967Z,33.30
2019-02-07T07:39:53.787Z,28.73
2019-02-07T07:40:36.607Z,32.00
2019-02-07T07:41:40.848Z,32.10
2019-02-07T07:42:47.710Z,32.40
2019-02-07T07:43:57.705Z,32.67
2019-02-07T07:45:01.739Z,32.53
2019-02-07T07:45:42.711Z,31.77
2019-02-07T07:46:37.664Z,34.05
2019-02-07T07:47:36.160Z,27.87
2019-02-07T07:48:32.198Z,27.98
2019-02-07T07:49:36.108Z,28.83
2019-02-07T07:50:26.074Z,36.40
2019-02-07T07:51:23.915Z,29.92
2019-02-07T07:52:21.724Z,30.37
2019-02-07T07:53:19.347Z,31.30
2019-02-07T07:54:14.359Z,34.43
2019-02-07T07:55:05.072Z,35.10
2019-02-07T07:55:51.939Z,30.75
2019-02-07T07:56:49.633Z,31.73
2019-02-07T07:57:40.453Z,30.55
2019-02-07T07:58:31.830Z,27.35
2019-02-07T07:59:26.831Z,32.00
2019-02-07T08:00:10.542Z,29.30
2019-02-07T08:01:14.646Z,30.20
2019-02-07T08:02:05.855Z,31.95
2019-02-07T08:03:02.069Z,28.85
2019-02-07T08:03:46.109Z,26.65
2019-02-07T08:04:41.086Z,26.87
2019-02-07T08:05:42.552Z,32.60
2019-02-07T08:06:34.856Z,29.45
2019-02-07T08:07:29.717Z,28.55
2019-02-07T08:08:16.326Z,24.80
2019-02-07T08:09:00.916Z,28.32
2019-02-07T08:09:51.592Z,28.85
2019-02-07T08:10:35.978Z,29.95
2019-02-07T08:11:34.074Z,25.60
2019-02-07T08:12:14.523Z,26.95
2019-02-07T08:13:13.564Z,24.77
2019-02-07T08:14:04.424Z,26.60
2019-02-07T08:15:14.985Z,26.75
2019-02-07T08:16:05.507Z,25.25
2019-02-07T08:16:59.105Z,20.80
2019-02-07T08:18:05.070Z,22.85
2019-02-07T08:18:59.819Z,22.77
2019-02-07T08:19:48.850Z,23.27
2019-02-07T08:20:32.084Z,22.80
2019-02-07T08:21:33.099Z,24.87
2019-02-07T08:22:16.418Z,28.00
2019-02-07T08:23:07.381Z,28.90
2019-02-07T08:23:51.751Z,29.82
2019-02-07T08:24:46.854Z,28.10
2019-02-07T08:25:34.368Z,24.85
2019-02-07T08:26:22.389Z,24.92
2019-02-07T08:27:14.565Z,22.25
2019-02-07T08:28:05.363Z,27.10
2019-02-07T08:29:12.479Z,23.18
2019-02-07T08:30:00.367Z,22.82
2019-02-07T08:30:51.227Z,24.05
2019-02-07T08:31:41.796Z,24.80
2019-02-07T08:32:33.375Z,22.77
2019-02-07T08:33:31.694Z,21.02
2019-02-07T08:34:23.711Z,19.25
2019-02-07T08:35:21.307Z,22.75
2019-02-07T08:36:19.584Z,22.58
2019-02-07T08:37:31.615Z,22.02
2019-02-07T08:38:27.344Z,19.55
2019-02-07T08:39:17.564Z,25.50
2019-02-07T08:40:21.887Z,28.98
2019-02-07T08:41:18.386Z,21.37
2019-02-07T08:42:23.334Z,19.17
2019-02-07T08:43:31.557Z,23.32
2019-02-07T08:44:27.751Z,20.70
2019-02-07T08:45:24.558Z,21.27
2019-02-07T08:46:21.171Z,21.85
2019-02-07T08:47:05.603Z,19.25
2019-02-07T08:48:12.403Z,21.70
2019-02-07T08:49:02.149Z,21.68
2019-02-07T08:49:56.518Z,19.77
2019-02-07T08:50:59.702Z,21.52
2019-02-07T08:51:54.254Z,22.82
2019-02-07T08:54:26.832Z,19.62
2019-02-07T08:55:17.180Z,19.37
2019-02-07T08:56:11.083Z,18.87
2019-02-07T08:57:06.030Z,22.30
2019-02-07T08:57:59.865Z,19.20
2019-02-07T08:58:56.347Z,31.52
2019-02-07T08:59:47.124Z,22.60
2019-02-07T09:00:40.968Z,25.60
2019-02-07T09:01:42.461Z,23.80
2019-02-07T09:02:51.386Z,20.00
2019-02-07T09:03:32.094Z,23.40
2019-02-07T09:04:39.599Z,14.58
2019-02-07T09:05:32.484Z,16.85
2019-02-07T09:06:25.099Z,20.40
2019-02-07T09:07:27.703Z,18.75
2019-02-07T09:08:25.984Z,20.12
2019-02-07T09:09:21.273Z,19.15
2019-02-07T09:10:21.303Z,18.52
2019-02-07T09:11:13.971Z,16.93
2019-02-07T09:12:23.984Z,17.48
2019-02-07T09:13:26.715Z,21.57
2019-02-07T09:14:23.437Z,21.27
2019-02-07T09:15:18.193Z,19.05
2019-02-07T09:16:13.912Z,20.57
2019-02-07T09:17:26.118Z,21.95
2019-02-07T09:18:17.164Z,21.77
2019-02-07T09:19:22.619Z,18.95
2019-02-07T09:20:08.603Z,25.35
2019-02-07T09:21:00.593Z,24.45
2019-02-07T09:21:58.251Z,19.75
2019-02-07T09:22:53.194Z,21.48
2019-02-07T09:23:47.364Z,21.62
2019-02-07T09:24:46.593Z,16.97
2019-02-07T09:25:43.029Z,20.55
2019-02-07T09:26:35.948Z,14.60
2019-02-07T09:27:26.519Z,24.50
2019-02-07T09:28:24.049Z,20.57
2019-02-07T09:29:18.122Z,22.85
2019-02-07T09:30:10.927Z,21.55
2019-02-07T09:31:05.312Z,22.02
2019-02-07T09:32:06.807Z,17.35
2019-02-07T09:33:14.250Z,17.67
2019-02-07T09:34:12.273Z,22.73
2019-02-07T09:35:16.649Z,19.15
2019-02-07T09:36:12.939Z,14.75
2019-02-07T09:37:02.410Z,23.45
2019-02-07T09:38:10.897Z,19.70
2019-02-07T09:39:02.925Z,17.37
2019-02-07T09:39:47.466Z,25.52
2019-02-07T09:40:42.335Z,19.60